sensor_id;sensor_type;location;lat;lon;timestamp;temperature;humidity
17341;DHT22;8788;49.930;8.660;2022-12-07T04:05:04;5.60;99.90
17341;DHT22;8788;49.930;8.660;2022-12-07T04:07:31;5.60;99.90
17341;DHT22;8788;49.930;8.660;2022-12-07T04:09:58;5.60;99.90
17341;DHT22;8788;49.930;8.660;2022-12-07T04:12:25;5.60;99.90
17341;DHT22;8788;49.930;8.660;2022-12-07T04:14:52;5.60;99.90
17341;DHT22;8788;49.930;8.660;2022-12-07T04:17:19;5.60;99.90
17341;DHT22;8788;49.930;8.660;2022-12-07T04:19:46;5.60;99.90
17341;DHT22;8788;49.930;8.660;2022-12-07T04:22:15;5.60;99.90
17341;DHT22;8788;49.930;8.660;2022-12-07T04:24:42;5.60;99.90
17341;DHT22;8788;49.930;8.660;2022-12-07T04:27:09;5.60;99.90
17341;DHT22;8788;49.930;8.660;2022-12-07T04:29:36;5.60;99.90
17341;DHT22;8788;49.930;8.660;2022-12-07T04:32:03;5.60;99.90
17341;DHT22;8788;49.930;8.660;2022-12-07T04:34:30;5.60;99.90
17341;DHT22;8788;49.930;8.660;2022-12-07T04:36:57;5.60;99.90
17341;DHT22;8788;49.930;8.660;2022-12-07T04:39:27;5.60;99.90
17341;DHT22;8788;49.930;8.660;2022-12-07T04:41:55;5.60;99.90
17341;DHT22;8788;49.930;8.660;2022-12-07T04:44:23;5.60;99.90
17341;DHT22;8788;49.930;8.660;2022-12-07T04:46:51;5.60;99.90
17341;DHT22;8788;49.930;8.660;2022-12-07T04:49:18;5.70;99.90
17341;DHT22;8788;49.930;8.660;2022-12-07T04:51:46;5.60;99.90
17341;DHT22;8788;49.930;8.660;2022-12-07T04:54:14;5.60;99.90
17341;DHT22;8788;49.930;8.660;2022-12-07T04:56:43;5.60;99.90
17341;DHT22;8788;49.930;8.660;2022-12-07T04:59:11;5.60;99.90
17341;DHT22;8788;49.930;8.660;2022-12-07T05:01:59;5.60;99.90
17341;DHT22;8788;49.930;8.660;2022-12-07T05:04:26;5.60;99.90
17341;DHT22;8788;49.930;8.660;2022-12-07T05:06:53;5.60;99.90
17341;DHT22;8788;49.930;8.660;2022-12-07T05:09:21;5.60;99.90
17341;DHT22;8788;49.930;8.660;2022-12-07T05:11:49;5.70;99.90
17341;DHT22;8788;49.930;8.660;2022-12-07T05:14:18;5.70;99.90
17341;DHT22;8788;49.930;8.660;2022-12-07T05:16:46;5.70;99.90
17341;DHT22;8788;49.930;8.660;2022-12-07T05:19:14;5.70;99.90
17341;DHT22;8788;49.930;8.660;2022-12-07T05:21:41;5.60;99.90
17341;DHT22;8788;49.930;8.660;2022-12-07T05:24:11;5.60;99.90
17341;DHT22;8788;49.930;8.660;2022-12-07T05:26:38;5.70;99.90
17341;DHT22;8788;49.930;8.660;2022-12-07T05:29:07;5.70;99.90
17341;DHT22;8788;49.930;8.660;2022-12-07T05:31:34;5.80;99.90
17341;DHT22;8788;49.930;8.660;2022-12-07T05:34:01;5.80;99.90
17341;DHT22;8788;49.930;8.660;2022-12-07T05:36:28;5.80;99.90
17341;DHT22;8788;49.930;8.660;2022-12-07T05:38:57;5.80;99.90
17341;DHT22;8788;49.930;8.660;2022-12-07T05:41:25;5.90;99.90
17341;DHT22;8788;49.930;8.660;2022-12-07T05:44:11;5.90;99.90
17341;DHT22;8788;49.930;8.660;2022-12-07T05:46:38;5.90;99.90
17341;DHT22;8788;49.930;8.660;2022-12-07T05:49:05;5.80;99.90
17341;DHT22;8788;49.930;8.660;2022-12-07T05:51:32;5.80;99.90
17341;DHT22;8788;49.930;8.660;2022-12-07T05:53:59;5.80;99.90
17341;DHT22;8788;49.930;8.660;2022-12-07T05:56:26;5.80;99.90
17341;DHT22;8788;49.930;8.660;2022-12-07T05:58:54;5.80;99.90
17341;DHT22;8788;49.930;8.660;2022-12-07T06:01:40;5.80;99.90
17341;DHT22;8788;49.930;8.660;2022-12-07T06:04:07;5.80;99.90
17341;DHT22;8788;49.930;8.660;2022-12-07T06:06:34;5.80;99.90
17341;DHT22;8788;49.930;8.660;2022-12-07T06:09:02;5.80;99.90
17341;DHT22;8788;49.930;8.660;2022-12-07T06:11:29;5.80;99.90
17341;DHT22;8788;49.930;8.660;2022-12-07T06:14:14;5.80;99.90
17341;DHT22;8788;49.930;8.660;2022-12-07T06:16:42;5.80;99.90
17341;DHT22;8788;49.930;8.660;2022-12-07T06:19:09;5.70;99.90
17341;DHT22;8788;49.930;8.660;2022-12-07T06:21:36;5.70;99.90
17341;DHT22;8788;49.930;8.660;2022-12-07T06:24:04;5.80;99.90
17341;DHT22;8788;49.930;8.660;2022-12-07T06:26:31;5.80;99.90
17341;DHT22;8788;49.930;8.660;2022-12-07T06:28:59;5.90;99.90
17341;DHT22;8788;49.930;8.660;2022-12-07T06:31:26;5.80;99.90
17341;DHT22;8788;49.930;8.660;2022-12-07T06:33:58;5.80;99.90
17341;DHT22;8788;49.930;8.660;2022-12-07T06:36:26;5.80;99.90
17341;DHT22;8788;49.930;8.660;2022-12-07T06:38:53;5.80;99.90
17341;DHT22;8788;49.930;8.660;2022-12-07T06:41:20;5.80;99.90
17341;DHT22;8788;49.930;8.660;2022-12-07T06:43:48;5.80;99.90
17341;DHT22;8788;49.930;8.660;2022-12-07T06:46:15;5.90;99.90
17341;DHT22;8788;49.930;8.660;2022-12-07T06:48:43;5.90;99.90
17341;DHT22;8788;49.930;8.660;2022-12-07T06:51:12;5.90;99.90
17341;DHT22;8788;49.930;8.660;2022-12-07T06:53:39;5.90;99.90
17341;DHT22;8788;49.930;8.660;2022-12-07T06:56:06;5.90;99.90
17341;DHT22;8788;49.930;8.660;2022-12-07T06:58:34;5.80;99.90
17341;DHT22;8788;49.930;8.660;2022-12-07T07:01:01;5.80;99.90
17341;DHT22;8788;49.930;8.660;2022-12-07T07:03:28;5.80;99.90
17341;DHT22;8788;49.930;8.660;2022-12-07T07:05:55;5.80;99.90
17341;DHT22;8788;49.930;8.660;2022-12-07T07:08:24;5.90;99.90
17341;DHT22;8788;49.930;8.660;2022-12-07T07:10:51;5.90;99.90
17341;DHT22;8788;49.930;8.660;2022-12-07T07:13:18;6.00;99.90
17341;DHT22;8788;49.930;8.660;2022-12-07T07:15:45;6.00;99.90
17341;DHT22;8788;49.930;8.660;2022-12-07T07:18:12;6.00;99.90
17341;DHT22;8788;49.930;8.660;2022-12-07T07:20:40;6.00;99.90
17341;DHT22;8788;49.930;8.660;2022-12-07T07:23:07;6.00;99.90
17341;DHT22;8788;49.930;8.660;2022-12-07T07:25:35;5.90;99.90
17341;DHT22;8788;49.930;8.660;2022-12-07T07:28:03;5.90;99.90
17341;DHT22;8788;49.930;8.660;2022-12-07T07:30:30;5.90;99.90
17341;DHT22;8788;49.930;8.660;2022-12-07T07:32:58;5.90;99.90
17341;DHT22;8788;49.930;8.660;2022-12-07T07:35:25;5.90;99.90
17341;DHT22;8788;49.930;8.660;2022-12-07T07:37:53;5.90;99.90
17341;DHT22;8788;49.930;8.660;2022-12-07T07:40:20;5.90;99.90
17341;DHT22;8788;49.930;8.660;2022-12-07T07:42:49;5.90;99.90
17341;DHT22;8788;49.930;8.660;2022-12-07T07:45:16;6.00;99.90
17341;DHT22;8788;49.930;8.660;2022-12-07T07:47:44;6.00;99.90
17341;DHT22;8788;49.930;8.660;2022-12-07T07:50:11;6.00;99.90
17341;DHT22;8788;49.930;8.660;2022-12-07T07:52:38;6.00;99.90
17341;DHT22;8788;49.930;8.660;2022-12-07T07:55:06;6.00;99.90
17341;DHT22;8788;49.930;8.660;2022-12-07T07:57:34;6.00;99.90
17341;DHT22;8788;49.930;8.660;2022-12-07T08:00:04;6.00;99.90
17341;DHT22;8788;49.930;8.660;2022-12-07T08:02:38;6.00;99.90
17341;DHT22;8788;49.930;8.660;2022-12-07T08:05:06;6.00;99.90
17341;DHT22;8788;49.930;8.660;2022-12-07T08:07:33;6.00;99.90
17341;DHT22;8788;49.930;8.660;2022-12-07T08:10:00;6.00;99.90
17341;DHT22;8788;49.930;8.660;2022-12-07T08:12:28;6.10;99.90
17341;DHT22;8788;49.930;8.660;2022-12-07T08:14:55;6.10;99.90
17341;DHT22;8788;49.930;8.660;2022-12-07T08:17:23;6.10;99.90
17341;DHT22;8788;49.930;8.660;2022-12-07T08:19:50;6.20;99.90
17341;DHT22;8788;49.930;8.660;2022-12-07T08:22:17;6.20;99.90
17341;DHT22;8788;49.930;8.660;2022-12-07T08:24:44;6.30;99.90
17341;DHT22;8788;49.930;8.660;2022-12-07T08:27:11;6.20;99.90
17341;DHT22;8788;49.930;8.660;2022-12-07T08:29:39;6.20;99.90
17341;DHT22;8788;49.930;8.660;2022-12-07T08:32:06;6.20;99.90
17341;DHT22;8788;49.930;8.660;2022-12-07T08:34:34;6.30;99.90
17341;DHT22;8788;49.930;8.660;2022-12-07T08:37:01;6.40;99.90
17341;DHT22;8788;49.930;8.660;2022-12-07T08:39:28;6.40;99.90
17341;DHT22;8788;49.930;8.660;2022-12-07T08:41:55;6.50;99.90
17341;DHT22;8788;49.930;8.660;2022-12-07T08:44:22;6.50;99.90
17341;DHT22;8788;49.930;8.660;2022-12-07T08:46:52;6.60;99.90
17341;DHT22;8788;49.930;8.660;2022-12-07T08:49:24;6.60;99.90
17341;DHT22;8788;49.930;8.660;2022-12-07T08:51:55;6.60;99.90
17341;DHT22;8788;49.930;8.660;2022-12-07T08:54:22;6.50;99.90
17341;DHT22;8788;49.930;8.660;2022-12-07T08:56:50;6.50;99.90
17341;DHT22;8788;49.930;8.660;2022-12-07T08:59:18;6.50;99.90
17341;DHT22;8788;49.930;8.660;2022-12-07T09:01:46;6.50;99.90
17341;DHT22;8788;49.930;8.660;2022-12-07T09:04:13;6.60;99.90
17341;DHT22;8788;49.930;8.660;2022-12-07T09:06:41;6.60;99.90
17341;DHT22;8788;49.930;8.660;2022-12-07T09:09:11;6.60;99.90
17341;DHT22;8788;49.930;8.660;2022-12-07T09:11:38;6.70;99.90
17341;DHT22;8788;49.930;8.660;2022-12-07T09:14:05;6.80;99.90
17341;DHT22;8788;49.930;8.660;2022-12-07T09:16:33;6.90;99.90
17341;DHT22;8788;49.930;8.660;2022-12-07T09:19:00;6.90;99.90
17341;DHT22;8788;49.930;8.660;2022-12-07T09:21:27;6.90;99.90
17341;DHT22;8788;49.930;8.660;2022-12-07T09:23:54;7.00;99.90
17341;DHT22;8788;49.930;8.660;2022-12-07T09:26:23;7.00;99.90
17341;DHT22;8788;49.930;8.660;2022-12-07T09:28:50;7.10;99.90
17341;DHT22;8788;49.930;8.660;2022-12-07T09:31:17;7.20;99.90
17341;DHT22;8788;49.930;8.660;2022-12-07T09:33:44;7.30;99.90
17341;DHT22;8788;49.930;8.660;2022-12-07T09:36:11;7.40;99.90
17341;DHT22;8788;49.930;8.660;2022-12-07T09:38:38;7.50;99.90
17341;DHT22;8788;49.930;8.660;2022-12-07T09:41:06;7.50;99.90
17341;DHT22;8788;49.930;8.660;2022-12-07T09:43:36;7.40;99.90
17341;DHT22;8788;49.930;8.660;2022-12-07T09:46:05;7.40;99.90
17341;DHT22;8788;49.930;8.660;2022-12-07T09:48:35;7.30;99.90
17341;DHT22;8788;49.930;8.660;2022-12-07T09:51:13;7.20;99.90
17341;DHT22;8788;49.930;8.660;2022-12-07T09:53:41;7.20;99.90
17341;DHT22;8788;49.930;8.660;2022-12-07T09:56:11;7.20;99.90
17341;DHT22;8788;49.930;8.660;2022-12-07T09:58:42;7.20;99.90
17341;DHT22;8788;49.930;8.660;2022-12-07T10:01:12;7.20;99.90
17341;DHT22;8788;49.930;8.660;2022-12-07T10:03:42;7.20;99.90
17341;DHT22;8788;49.930;8.660;2022-12-07T10:06:12;7.20;99.90
17341;DHT22;8788;49.930;8.660;2022-12-07T10:08:40;7.20;99.90
17341;DHT22;8788;49.930;8.660;2022-12-07T10:11:09;7.30;99.90
17341;DHT22;8788;49.930;8.660;2022-12-07T10:13:39;7.40;99.90
17341;DHT22;8788;49.930;8.660;2022-12-07T10:16:32;7.40;99.90
17341;DHT22;8788;49.930;8.660;2022-12-07T10:19:19;7.50;99.90
17341;DHT22;8788;49.930;8.660;2022-12-07T10:22:09;7.50;99.90
17341;DHT22;8788;49.930;8.660;2022-12-07T10:24:36;7.60;99.90
17341;DHT22;8788;49.930;8.660;2022-12-07T10:27:05;7.70;99.90
17341;DHT22;8788;49.930;8.660;2022-12-07T10:29:39;7.70;99.90
17341;DHT22;8788;49.930;8.660;2022-12-07T10:32:29;7.80;99.90
17341;DHT22;8788;49.930;8.660;2022-12-07T10:35:19;7.80;99.90
17341;DHT22;8788;49.930;8.660;2022-12-07T10:37:47;7.80;99.90
17341;DHT22;8788;49.930;8.660;2022-12-07T10:40:27;7.80;99.90
17341;DHT22;8788;49.930;8.660;2022-12-07T10:43:05;7.90;99.90
17341;DHT22;8788;49.930;8.660;2022-12-07T10:45:34;8.00;99.90
17341;DHT22;8788;49.930;8.660;2022-12-07T10:48:07;8.10;99.90
17341;DHT22;8788;49.930;8.660;2022-12-07T10:50:56;8.10;99.90
17341;DHT22;8788;49.930;8.660;2022-12-07T10:53:48;8.10;99.90
17341;DHT22;8788;49.930;8.660;2022-12-07T10:56:36;8.00;99.90
17341;DHT22;8788;49.930;8.660;2022-12-07T10:59:25;8.00;99.90
17341;DHT22;8788;49.930;8.660;2022-12-07T11:02:02;8.00;99.90
17341;DHT22;8788;49.930;8.660;2022-12-07T11:04:43;8.00;99.90
17341;DHT22;8788;49.930;8.660;2022-12-07T11:07:24;8.10;99.90
17341;DHT22;8788;49.930;8.660;2022-12-07T11:10:02;8.10;99.90
17341;DHT22;8788;49.930;8.660;2022-12-07T11:12:43;8.00;99.90
17341;DHT22;8788;49.930;8.660;2022-12-07T11:15:19;8.00;99.90
17341;DHT22;8788;49.930;8.660;2022-12-07T11:17:54;8.00;99.90
17341;DHT22;8788;49.930;8.660;2022-12-07T11:20:37;8.00;99.90
17341;DHT22;8788;49.930;8.660;2022-12-07T11:23:13;8.10;99.90
17341;DHT22;8788;49.930;8.660;2022-12-07T11:25:49;8.30;99.90
17341;DHT22;8788;49.930;8.660;2022-12-07T11:28:29;8.40;99.90
17341;DHT22;8788;49.930;8.660;2022-12-07T11:31:05;8.80;99.90
17341;DHT22;8788;49.930;8.660;2022-12-07T11:33:39;9.70;99.90
17341;DHT22;8788;49.930;8.660;2022-12-07T11:36:17;10.40;99.90
17341;DHT22;8788;49.930;8.660;2022-12-07T11:38:53;11.70;99.90
17341;DHT22;8788;49.930;8.660;2022-12-07T11:41:23;17.40;99.90
17341;DHT22;8788;49.930;8.660;2022-12-07T11:43:56;22.00;99.40
17341;DHT22;8788;49.930;8.660;2022-12-07T11:46:28;24.30;90.90
17341;DHT22;8788;49.930;8.660;2022-12-07T11:49:03;20.40;91.00
17341;DHT22;8788;49.930;8.660;2022-12-07T11:51:38;16.50;95.90
17341;DHT22;8788;49.930;8.660;2022-12-07T11:54:12;13.80;99.90
17341;DHT22;8788;49.930;8.660;2022-12-07T11:56:41;12.10;99.90
17341;DHT22;8788;49.930;8.660;2022-12-07T11:59:12;10.90;99.90
17341;DHT22;8788;49.930;8.660;2022-12-07T12:01:48;10.20;99.90
17341;DHT22;8788;49.930;8.660;2022-12-07T12:04:27;9.50;99.90
17341;DHT22;8788;49.930;8.660;2022-12-07T12:06:58;9.10;99.90
17341;DHT22;8788;49.930;8.660;2022-12-07T12:09:30;8.80;99.90
17341;DHT22;8788;49.930;8.660;2022-12-07T12:15:18;8.50;99.90
17341;DHT22;8788;49.930;8.660;2022-12-07T12:17:59;8.50;99.90
17341;DHT22;8788;49.930;8.660;2022-12-07T12:20:32;8.40;99.90
17341;DHT22;8788;49.930;8.660;2022-12-07T12:23:09;8.40;99.90
17341;DHT22;8788;49.930;8.660;2022-12-07T12:25:40;8.40;99.90
17341;DHT22;8788;49.930;8.660;2022-12-07T12:28:20;8.40;99.90
17341;DHT22;8788;49.930;8.660;2022-12-07T12:31:04;8.30;99.90
17341;DHT22;8788;49.930;8.660;2022-12-07T12:33:32;8.30;99.90
17341;DHT22;8788;49.930;8.660;2022-12-07T12:36:24;8.20;99.90
17341;DHT22;8788;49.930;8.660;2022-12-07T12:39:09;8.20;99.90
17341;DHT22;8788;49.930;8.660;2022-12-07T12:41:55;8.10;99.90
17341;DHT22;8788;49.930;8.660;2022-12-07T12:45:18;8.10;99.90
17341;DHT22;8788;49.930;8.660;2022-12-07T12:47:54;8.00;99.90
17341;DHT22;8788;49.930;8.660;2022-12-07T12:50:27;8.00;99.90
17341;DHT22;8788;49.930;8.660;2022-12-07T12:53:04;8.00;99.90
17341;DHT22;8788;49.930;8.660;2022-12-07T12:55:54;8.00;99.90
17341;DHT22;8788;49.930;8.660;2022-12-07T12:58:43;8.00;99.90
17341;DHT22;8788;49.930;8.660;2022-12-07T13:01:45;8.00;99.90
17341;DHT22;8788;49.930;8.660;2022-12-07T13:07:12;8.10;99.90
17341;DHT22;8788;49.930;8.660;2022-12-07T13:09:43;8.10;99.90
17341;DHT22;8788;49.930;8.660;2022-12-07T13:12:15;8.00;99.90
17341;DHT22;8788;49.930;8.660;2022-12-07T13:14:57;8.00;99.90
17341;DHT22;8788;49.930;8.660;2022-12-07T13:18:02;8.00;99.90
17341;DHT22;8788;49.930;8.660;2022-12-07T13:20:51;8.00;99.90
17341;DHT22;8788;49.930;8.660;2022-12-07T13:23:21;8.10;99.90
17341;DHT22;8788;49.930;8.660;2022-12-07T13:25:58;8.40;99.90
17341;DHT22;8788;49.930;8.660;2022-12-07T13:28:33;8.90;99.90
17341;DHT22;8788;49.930;8.660;2022-12-07T13:31:16;9.40;99.90
17341;DHT22;8788;49.930;8.660;2022-12-07T13:33:47;9.60;99.90
17341;DHT22;8788;49.930;8.660;2022-12-07T13:36:20;11.70;99.90
17341;DHT22;8788;49.930;8.660;2022-12-07T13:38:55;12.80;99.90
17341;DHT22;8788;49.930;8.660;2022-12-07T13:41:23;13.20;99.90
17341;DHT22;8788;49.930;8.660;2022-12-07T13:44:00;15.90;99.90
17341;DHT22;8788;49.930;8.660;2022-12-07T13:46:40;17.00;99.90
17341;DHT22;8788;49.930;8.660;2022-12-07T13:49:21;15.50;99.90
17341;DHT22;8788;49.930;8.660;2022-12-07T13:51:49;13.60;99.90
17341;DHT22;8788;49.930;8.660;2022-12-07T13:54:17;12.10;99.90
17341;DHT22;8788;49.930;8.660;2022-12-07T13:56:48;11.00;99.90
17341;DHT22;8788;49.930;8.660;2022-12-07T13:59:19;10.20;99.90
17341;DHT22;8788;49.930;8.660;2022-12-07T14:01:48;9.70;99.90
17341;DHT22;8788;49.930;8.660;2022-12-07T14:04:34;9.30;99.90
17341;DHT22;8788;49.930;8.660;2022-12-07T14:07:22;8.90;99.90
17341;DHT22;8788;49.930;8.660;2022-12-07T14:09:57;8.70;99.90
17341;DHT22;8788;49.930;8.660;2022-12-07T14:12:26;8.50;99.90
17341;DHT22;8788;49.930;8.660;2022-12-07T14:14:55;8.40;99.90
17341;DHT22;8788;49.930;8.660;2022-12-07T14:17:24;8.30;99.90
17341;DHT22;8788;49.930;8.660;2022-12-07T14:19:53;8.30;99.90
17341;DHT22;8788;49.930;8.660;2022-12-07T14:22:28;8.30;99.90
17341;DHT22;8788;49.930;8.660;2022-12-07T14:27:52;8.00;99.90
17341;DHT22;8788;49.930;8.660;2022-12-07T14:30:24;7.90;99.90
17341;DHT22;8788;49.930;8.660;2022-12-07T14:32:54;7.90;99.90
17341;DHT22;8788;49.930;8.660;2022-12-07T14:35:21;8.00;99.90
17341;DHT22;8788;49.930;8.660;2022-12-07T14:37:49;8.00;99.90
17341;DHT22;8788;49.930;8.660;2022-12-07T14:40:18;8.00;99.90
17341;DHT22;8788;49.930;8.660;2022-12-07T14:42:48;8.00;99.90
17341;DHT22;8788;49.930;8.660;2022-12-07T14:45:19;8.00;99.90
17341;DHT22;8788;49.930;8.660;2022-12-07T14:47:48;8.00;99.90
17341;DHT22;8788;49.930;8.660;2022-12-07T14:50:17;8.00;99.90
17341;DHT22;8788;49.930;8.660;2022-12-07T14:52:48;8.00;99.90
17341;DHT22;8788;49.930;8.660;2022-12-07T14:55:20;7.90;99.90
17341;DHT22;8788;49.930;8.660;2022-12-07T14:57:49;7.90;99.90
17341;DHT22;8788;49.930;8.660;2022-12-07T15:00:18;7.80;99.90
17341;DHT22;8788;49.930;8.660;2022-12-07T15:02:47;7.80;99.90
17341;DHT22;8788;49.930;8.660;2022-12-07T15:05:14;7.70;99.90
17341;DHT22;8788;49.930;8.660;2022-12-07T15:07:41;7.70;99.90
17341;DHT22;8788;49.930;8.660;2022-12-07T15:10:15;7.70;99.90
17341;DHT22;8788;49.930;8.660;2022-12-07T15:12:44;7.60;99.90
17341;DHT22;8788;49.930;8.660;2022-12-07T15:15:11;7.50;99.90
17341;DHT22;8788;49.930;8.660;2022-12-07T15:17:38;7.40;99.90
17341;DHT22;8788;49.930;8.660;2022-12-07T15:20:10;7.30;99.90
17341;DHT22;8788;49.930;8.660;2022-12-07T15:22:38;7.30;99.90
17341;DHT22;8788;49.930;8.660;2022-12-07T15:25:05;7.30;99.90
17341;DHT22;8788;49.930;8.660;2022-12-07T15:27:33;7.20;99.90
17341;DHT22;8788;49.930;8.660;2022-12-07T15:30:00;7.20;99.90
17341;DHT22;8788;49.930;8.660;2022-12-07T15:32:28;7.30;99.90
17341;DHT22;8788;49.930;8.660;2022-12-07T15:34:55;7.30;99.90
17341;DHT22;8788;49.930;8.660;2022-12-07T15:37:23;7.30;99.90
17341;DHT22;8788;49.930;8.660;2022-12-07T15:39:50;7.30;99.90
17341;DHT22;8788;49.930;8.660;2022-12-07T15:42:18;7.30;99.90
17341;DHT22;8788;49.930;8.660;2022-12-07T15:44:45;7.40;99.90
17341;DHT22;8788;49.930;8.660;2022-12-07T15:47:29;7.40;99.90
17341;DHT22;8788;49.930;8.660;2022-12-07T15:49:57;7.30;99.90
17341;DHT22;8788;49.930;8.660;2022-12-07T15:52:25;7.40;99.90
17341;DHT22;8788;49.930;8.660;2022-12-07T15:54:54;7.40;99.90
17341;DHT22;8788;49.930;8.660;2022-12-07T15:57:21;7.40;99.90
17341;DHT22;8788;49.930;8.660;2022-12-07T15:59:48;7.30;99.90
17341;DHT22;8788;49.930;8.660;2022-12-07T16:02:15;7.30;99.90
17341;DHT22;8788;49.930;8.660;2022-12-07T16:04:42;7.30;99.90
17341;DHT22;8788;49.930;8.660;2022-12-07T16:07:09;7.30;99.90
17341;DHT22;8788;49.930;8.660;2022-12-07T16:09:38;7.30;99.90
17341;DHT22;8788;49.930;8.660;2022-12-07T16:12:06;7.30;99.90
17341;DHT22;8788;49.930;8.660;2022-12-07T16:14:34;7.30;99.90
17341;DHT22;8788;49.930;8.660;2022-12-07T16:17:01;7.30;99.90
17341;DHT22;8788;49.930;8.660;2022-12-07T16:19:28;7.20;99.90
17341;DHT22;8788;49.930;8.660;2022-12-07T16:21:55;7.20;99.90
17341;DHT22;8788;49.930;8.660;2022-12-07T16:24:22;7.20;99.90
17341;DHT22;8788;49.930;8.660;2022-12-07T16:26:51;7.10;99.90
17341;DHT22;8788;49.930;8.660;2022-12-07T16:29:20;7.10;99.90
17341;DHT22;8788;49.930;8.660;2022-12-07T16:31:47;7.00;99.90
17341;DHT22;8788;49.930;8.660;2022-12-07T16:34:15;6.80;99.90
17341;DHT22;8788;49.930;8.660;2022-12-07T16:36:42;6.80;99.90
17341;DHT22;8788;49.930;8.660;2022-12-07T16:39:09;6.90;99.90
17341;DHT22;8788;49.930;8.660;2022-12-07T16:41:36;6.80;99.90
17341;DHT22;8788;49.930;8.660;2022-12-07T16:44:07;6.80;99.90
17341;DHT22;8788;49.930;8.660;2022-12-07T16:46:35;6.70;99.90
17341;DHT22;8788;49.930;8.660;2022-12-07T16:49:03;6.70;99.90
17341;DHT22;8788;49.930;8.660;2022-12-07T16:51:30;6.70;99.90
17341;DHT22;8788;49.930;8.660;2022-12-07T16:54:00;6.70;99.90
17341;DHT22;8788;49.930;8.660;2022-12-07T16:56:27;6.70;99.90
17341;DHT22;8788;49.930;8.660;2022-12-07T16:58:54;6.70;99.90
17341;DHT22;8788;49.930;8.660;2022-12-07T17:01:23;6.70;99.90
17341;DHT22;8788;49.930;8.660;2022-12-07T17:03:53;6.80;99.90
17341;DHT22;8788;49.930;8.660;2022-12-07T17:06:22;6.80;99.90
17341;DHT22;8788;49.930;8.660;2022-12-07T17:08:50;6.80;99.90
17341;DHT22;8788;49.930;8.660;2022-12-07T17:11:18;6.80;99.90
17341;DHT22;8788;49.930;8.660;2022-12-07T17:13:46;6.90;99.90
17341;DHT22;8788;49.930;8.660;2022-12-07T17:16:32;6.80;99.90
17341;DHT22;8788;49.930;8.660;2022-12-07T17:19:03;6.80;99.90
17341;DHT22;8788;49.930;8.660;2022-12-07T17:21:30;6.80;99.90
17341;DHT22;8788;49.930;8.660;2022-12-07T17:23:58;6.80;99.90
17341;DHT22;8788;49.930;8.660;2022-12-07T17:26:26;6.80;99.90
17341;DHT22;8788;49.930;8.660;2022-12-07T17:28:54;6.90;99.90
17341;DHT22;8788;49.930;8.660;2022-12-07T17:31:22;6.90;99.90
17341;DHT22;8788;49.930;8.660;2022-12-07T17:33:51;6.90;99.90
17341;DHT22;8788;49.930;8.660;2022-12-07T17:36:21;6.90;99.90
17341;DHT22;8788;49.930;8.660;2022-12-07T17:38:49;6.90;99.90
17341;DHT22;8788;49.930;8.660;2022-12-07T17:41:19;6.80;99.90
17341;DHT22;8788;49.930;8.660;2022-12-07T17:44:00;6.70;99.90
17341;DHT22;8788;49.930;8.660;2022-12-07T17:46:27;6.70;99.90
17341;DHT22;8788;49.930;8.660;2022-12-07T17:48:56;6.70;99.90
17341;DHT22;8788;49.930;8.660;2022-12-07T17:51:23;6.80;99.90
17341;DHT22;8788;49.930;8.660;2022-12-07T17:54:08;6.80;99.90
17341;DHT22;8788;49.930;8.660;2022-12-07T17:56:35;6.80;99.90
17341;DHT22;8788;49.930;8.660;2022-12-07T17:59:03;6.80;99.90
17341;DHT22;8788;49.930;8.660;2022-12-07T18:01:30;6.70;99.90
17341;DHT22;8788;49.930;8.660;2022-12-07T18:03:59;6.60;99.90
17341;DHT22;8788;49.930;8.660;2022-12-07T18:06:26;6.70;99.90
17341;DHT22;8788;49.930;8.660;2022-12-07T18:08:53;6.60;99.90
17341;DHT22;8788;49.930;8.660;2022-12-07T18:11:20;6.50;99.90
17341;DHT22;8788;49.930;8.660;2022-12-07T18:13:47;6.60;99.90
17341;DHT22;8788;49.930;8.660;2022-12-07T18:16:16;6.50;99.90
17341;DHT22;8788;49.930;8.660;2022-12-07T18:18:44;6.50;99.90
17341;DHT22;8788;49.930;8.660;2022-12-07T18:21:14;6.50;99.90
17341;DHT22;8788;49.930;8.660;2022-12-07T18:23:42;6.50;99.90
17341;DHT22;8788;49.930;8.660;2022-12-07T18:26:09;6.50;99.90
17341;DHT22;8788;49.930;8.660;2022-12-07T18:28:38;6.50;99.90
17341;DHT22;8788;49.930;8.660;2022-12-07T18:31:05;6.50;99.90
17341;DHT22;8788;49.930;8.660;2022-12-07T18:33:32;6.50;99.90
17341;DHT22;8788;49.930;8.660;2022-12-07T18:36:00;6.50;99.90
17341;DHT22;8788;49.930;8.660;2022-12-07T18:38:30;6.40;99.90
17341;DHT22;8788;49.930;8.660;2022-12-07T18:40:58;6.50;99.90
17341;DHT22;8788;49.930;8.660;2022-12-07T18:43:25;6.60;99.90
17341;DHT22;8788;49.930;8.660;2022-12-07T18:45:52;6.60;99.90
17341;DHT22;8788;49.930;8.660;2022-12-07T18:48:21;6.60;99.90
17341;DHT22;8788;49.930;8.660;2022-12-07T18:50:58;6.60;99.90
17341;DHT22;8788;49.930;8.660;2022-12-07T18:53:26;6.60;99.90
17341;DHT22;8788;49.930;8.660;2022-12-07T18:56:02;6.50;99.90
17341;DHT22;8788;49.930;8.660;2022-12-07T18:58:29;6.40;99.90
17341;DHT22;8788;49.930;8.660;2022-12-07T19:00:57;6.30;99.90
17341;DHT22;8788;49.930;8.660;2022-12-07T19:03:24;6.20;99.90
17341;DHT22;8788;49.930;8.660;2022-12-07T19:05:51;6.30;99.90
17341;DHT22;8788;49.930;8.660;2022-12-07T19:08:22;6.30;99.90
17341;DHT22;8788;49.930;8.660;2022-12-07T19:10:49;6.30;99.90
17341;DHT22;8788;49.930;8.660;2022-12-07T19:13:18;6.20;99.90
17341;DHT22;8788;49.930;8.660;2022-12-07T19:15:45;6.20;99.90
17341;DHT22;8788;49.930;8.660;2022-12-07T19:18:12;6.20;99.90
17341;DHT22;8788;49.930;8.660;2022-12-07T19:20:39;6.20;99.90
17341;DHT22;8788;49.930;8.660;2022-12-07T19:23:06;6.20;99.90
17341;DHT22;8788;49.930;8.660;2022-12-07T19:25:33;6.20;99.90
17341;DHT22;8788;49.930;8.660;2022-12-07T19:28:00;6.20;99.90
17341;DHT22;8788;49.930;8.660;2022-12-07T19:30:29;6.10;99.90
17341;DHT22;8788;49.930;8.660;2022-12-07T19:32:56;6.10;99.90
17341;DHT22;8788;49.930;8.660;2022-12-07T19:35:23;6.20;99.90
17341;DHT22;8788;49.930;8.660;2022-12-07T19:37:50;6.20;99.90
17341;DHT22;8788;49.930;8.660;2022-12-07T19:40:17;6.20;99.90
17341;DHT22;8788;49.930;8.660;2022-12-07T19:42:44;6.10;99.90
17341;DHT22;8788;49.930;8.660;2022-12-07T19:45:11;6.10;99.90
17341;DHT22;8788;49.930;8.660;2022-12-07T19:47:40;6.10;99.90
17341;DHT22;8788;49.930;8.660;2022-12-07T19:50:08;6.00;99.90
17341;DHT22;8788;49.930;8.660;2022-12-07T19:52:35;6.00;99.90
17341;DHT22;8788;49.930;8.660;2022-12-07T19:55:02;6.00;99.90
17341;DHT22;8788;49.930;8.660;2022-12-07T19:57:29;5.90;99.90
17341;DHT22;8788;49.930;8.660;2022-12-07T19:59:56;5.90;99.90
17341;DHT22;8788;49.930;8.660;2022-12-07T20:02:24;5.90;99.90
17341;DHT22;8788;49.930;8.660;2022-12-07T20:04:52;5.90;99.90
17341;DHT22;8788;49.930;8.660;2022-12-07T20:07:19;5.80;99.90
17341;DHT22;8788;49.930;8.660;2022-12-07T20:09:46;5.80;99.90
17341;DHT22;8788;49.930;8.660;2022-12-07T20:12:13;5.80;99.90
17341;DHT22;8788;49.930;8.660;2022-12-07T20:14:58;5.90;99.90
17341;DHT22;8788;49.930;8.660;2022-12-07T20:17:25;5.90;99.90
17341;DHT22;8788;49.930;8.660;2022-12-07T20:19:53;5.90;99.90
17341;DHT22;8788;49.930;8.660;2022-12-07T20:22:20;6.00;99.90
17341;DHT22;8788;49.930;8.660;2022-12-07T20:24:47;6.00;99.90
17341;DHT22;8788;49.930;8.660;2022-12-07T20:27:14;5.90;99.90
17341;DHT22;8788;49.930;8.660;2022-12-07T20:29:42;5.90;99.90
17341;DHT22;8788;49.930;8.660;2022-12-07T20:32:10;5.80;99.90
17341;DHT22;8788;49.930;8.660;2022-12-07T20:34:37;5.80;99.90